Time;durP1;ratioP1;P1;durP2;ratioP2;P2;SDS_P1;SDS_P2;PMS_P1;PMS_P2;Temp;Humidity;BMP_temperature;BMP_pressure;BME280_temperature;BME280_humidity;BME280_pressure;Samples;Min_cycle;Max_cycle;Signal;HPM_P1;HPM_P2
2021/07/20 00:01:41;;;;;;;;;14.50;14.50;;;;;27.24;47.14;101305.66;5073627;27;45350;-49
2021/07/20 00:04:07;;;;;;;;;17.25;16.25;;;;;27.23;47.18;101314.81;5059657;28;48073;-47
2021/07/20 00:06:33;;;;;;;;;14.50;14.50;;;;;27.20;46.55;101310.50;5058832;27;45369;-47
2021/07/20 00:08:58;;;;;;;;;13.00;13.00;;;;;27.20;46.93;101315.09;5080785;27;45283;-50
2021/07/20 00:11:24;;;;;;;;;17.00;17.00;;;;;27.16;46.64;101313.56;5081057;27;45831;-49
2021/07/20 00:13:49;;;;;;;;;14.75;14.75;;;;;27.13;46.77;101314.69;5062496;28;45403;-51
2021/07/20 00:16:15;;;;;;;;;18.50;16.25;;;;;27.12;46.90;101312.09;5062562;28;45409;-49
2021/07/20 00:18:41;;;;;;;;;16.50;14.75;;;;;27.11;46.98;101302.19;5063972;28;45386;-48
2021/07/20 00:21:09;;;;;;;;;20.25;19.25;;;;;27.10;47.14;101311.38;5062606;28;45395;-50
2021/07/20 00:23:34;;;;;;;;;19.25;19.25;;;;;27.09;46.82;101304.19;5080381;27;47911;-49
2021/07/20 00:26:00;;;;;;;;;14.50;14.50;;;;;27.09;47.09;101312.38;5080678;27;45370;-51
2021/07/20 00:28:26;;;;;;;;;15.50;15.00;;;;;27.08;46.86;101307.91;5080698;27;45318;-49
2021/07/20 00:30:53;;;;;;;;;18.75;17.00;;;;;27.08;47.14;101303.31;5062315;27;45406;-48
2021/07/20 00:33:19;;;;;;;;;16.00;16.00;;;;;27.07;47.50;101295.28;5080998;27;45755;-49
2021/07/20 00:35:45;;;;;;;;;13.00;12.50;;;;;27.05;47.04;101302.69;5062213;28;45366;-47
2021/07/20 00:38:11;;;;;;;;;16.75;15.50;;;;;27.04;47.52;101298.22;5077743;27;45492;-49
2021/07/20 00:40:38;;;;;;;;;16.50;15.75;;;;;27.01;47.50;101295.72;5062213;27;45404;-51
2021/07/20 00:43:04;;;;;;;;;14.00;13.00;;;;;26.98;47.06;101297.72;5058962;28;47339;-51
2021/07/20 00:45:31;;;;;;;;;15.75;15.00;;;;;26.97;47.17;101293.28;5071429;27;45298;-46
2021/07/20 00:47:56;;;;;;;;;13.25;13.25;;;;;26.95;47.04;101294.38;5077628;27;45420;-51
2021/07/20 00:50:25;;;;;;;;;12.00;12.00;;;;;26.94;47.09;101303.56;5083728;27;45374;-49
2021/07/20 00:52:51;;;;;;;;;14.00;13.00;;;;;26.92;47.16;101289.16;5065023;28;46540;-49
2021/07/20 00:55:18;;;;;;;;;13.25;13.25;;;;;26.92;47.72;101291.88;5062302;27;45425;-48
2021/07/20 00:57:45;;;;;;;;;17.50;14.75;;;;;26.91;47.67;101296.47;5080434;27;45425;-50
2021/07/20 01:00:15;;;;;;;;;13.25;12.00;;;;;26.89;47.81;101303.03;5081213;27;45235;-49
2021/07/20 01:02:41;;;;;;;;;13.00;13.00;;;;;26.88;47.29;101299.44;5078269;27;47167;-48
2021/07/20 01:05:13;;;;;;;;;15.00;14.50;;;;;26.86;47.74;101296.00;5061883;28;45860;-47
2021/07/20 01:07:42;;;;;;;;;14.75;14.25;;;;;26.85;47.48;101298.84;5061690;28;45448;-49
2021/07/20 01:10:09;;;;;;;;;14.25;14.00;;;;;26.82;47.88;101288.22;5080229;27;45679;-49
2021/07/20 01:12:39;;;;;;;;;14.00;14.00;;;;;26.81;47.82;101300.09;5079688;27;47292;-51
2021/07/20 01:15:06;;;;;;;;;15.00;14.25;;;;;26.78;47.84;101295.72;5062484;28;45354;-50
2021/07/20 01:17:37;;;;;;;;;15.50;14.00;;;;;26.76;47.60;101296.84;5081117;27;45691;-50
2021/07/20 01:20:09;;;;;;;;;16.00;16.00;;;;;26.73;48.13;101302.56;5077947;27;45495;-50
2021/07/20 01:22:36;;;;;;;;;15.25;12.25;;;;;26.70;48.08;101303.69;5079680;27;47478;-49
2021/07/20 01:25:09;;;;;;;;;12.75;12.75;;;;;26.69;47.73;101299.22;5079668;27;45425;-48
2021/07/20 01:27:43;;;;;;;;;14.75;13.00;;;;;26.65;47.89;101301.31;5080001;27;45347;-49
2021/07/20 01:30:09;;;;;;;;;16.25;13.25;;;;;26.64;48.47;101299.56;5075639;28;45318;-53
2021/07/20 01:32:36;;;;;;;;;15.25;14.00;;;;;26.63;48.43;101302.41;5078828;27;47387;-48
2021/07/20 01:35:04;;;;;;;;;11.50;11.50;;;;;26.61;48.03;101308.00;5079538;27;45499;-47
2021/07/20 01:37:30;;;;;;;;;14.00;14.00;;;;;26.59;48.64;101304.53;5058938;27;45465;-47
2021/07/20 01:39:57;;;;;;;;;12.75;12.75;;;;;26.57;47.95;101309.22;5057990;28;45542;-47
2021/07/20 01:42:25;;;;;;;;;16.25;16.00;;;;;26.55;48.69;101305.78;5086946;27;47418;-49
2021/07/20 01:44:51;;;;;;;;;14.00;12.00;;;;;26.52;48.51;101306.00;5066772;27;45478;-49
2021/07/20 01:47:18;;;;;;;;;18.50;17.00;;;;;26.51;48.66;101308.84;5076755;27;45381;-52
2021/07/20 01:49:46;;;;;;;;;19.00;19.00;;;;;26.49;48.73;101308.09;5079650;27;45557;-48
2021/07/20 01:52:12;;;;;;;;;13.75;13.75;;;;;26.48;48.07;101309.09;5078543;27;48321;-51
2021/07/20 01:54:43;;;;;;;;;15.50;14.25;;;;;26.46;48.22;101303.78;5078939;27;45317;-48
2021/07/20 01:57:10;;;;;;;;;19.50;18.00;;;;;26.46;48.40;101302.91;5079259;27;45382;-51
2021/07/20 01:59:36;;;;;;;;;14.25;14.25;;;;;26.44;48.91;101303.03;5079541;27;45493;-52
2021/07/20 02:04:49;;;;;;;;;16.00;15.00;;;;;26.40;48.54;101304.25;5061062;28;45947;-46
2021/07/20 02:10:01;;;;;;;;;14.00;13.75;;;;;26.36;49.03;101305.47;5079100;27;45357;-48
2021/07/20 02:12:35;;;;;;;;;14.75;14.75;;;;;26.34;48.61;101300.13;5060376;28;45384;-50
2021/07/20 02:15:03;;;;;;;;;16.00;14.25;;;;;26.32;48.80;101304.81;5078606;27;45302;-47
2021/07/20 02:17:30;;;;;;;;;17.00;17.00;;;;;26.30;48.87;101300.50;5061070;28;45419;-49
2021/07/20 02:20:01;;;;;;;;;17.00;17.00;;;;;26.29;49.09;101312.34;5079090;27;45330;-49
2021/07/20 02:22:27;;;;;;;;;18.00;17.25;;;;;26.28;49.22;101307.88;5078566;27;47364;-48
2021/07/20 02:24:55;;;;;;;;;15.00;15.00;;;;;26.26;49.33;101313.44;5078178;27;45968;-48
2021/07/20 02:27:23;;;;;;;;;15.50;14.75;;;;;26.25;48.83;101316.28;5078942;27;45426;-47
2021/07/20 02:29:53;;;;;;;;;18.00;17.00;;;;;26.23;48.97;101310.97;5079034;28;45673;-51
2021/07/20 02:32:21;;;;;;;;;15.50;14.50;;;;;26.19;49.19;101309.50;5078347;27;47417;-51
2021/07/20 02:34:47;;;;;;;;;16.00;15.25;;;;;26.16;49.44;101314.28;5078622;27;45993;-50
2021/07/20 02:37:14;;;;;;;;;18.75;18.75;;;;;26.14;49.51;101316.25;5059759;28;45409;-47
2021/07/20 02:39:41;;;;;;;;;17.25;17.00;;;;;26.12;49.36;101310.94;5076927;27;45659;-50
2021/07/20 02:42:07;;;;;;;;;19.25;19.25;;;;;26.09;49.25;101308.47;5078324;27;45980;-50
2021/07/20 02:44:38;;;;;;;;;21.75;20.75;;;;;26.06;49.87;101304.13;5078252;27;45452;-52
2021/07/20 02:47:04;;;;;;;;;18.50;16.50;;;;;26.02;49.58;101302.63;5072352;28;45465;-47
2021/07/20 02:49:31;;;;;;;;;22.25;18.00;;;;;25.99;49.74;101302.88;5078124;27;45607;-48
2021/07/20 02:51:58;;;;;;;;;20.50;19.00;;;;;25.98;49.47;101298.41;5077905;27;46877;-50
2021/07/20 02:54:28;;;;;;;;;18.25;18.25;;;;;25.95;49.81;101301.38;5056979;28;45382;-47
2021/07/20 02:56:54;;;;;;;;;18.50;16.50;;;;;25.94;49.74;101301.50;5078843;27;45380;-48
2021/07/20 02:59:23;;;;;;;;;16.75;16.00;;;;;25.92;49.94;101303.44;5082016;27;45612;-49
2021/07/20 03:01:53;;;;;;;;;14.50;14.50;;;;;25.89;49.50;101299.09;5063395;28;47161;-50
2021/07/20 03:04:19;;;;;;;;;15.00;15.00;;;;;25.87;49.57;101303.81;5081718;27;45445;-51
2021/07/20 03:06:50;;;;;;;;;0.00;0.00;;;;;25.85;49.50;101303.06;5081359;27;45358;-49
2021/07/20 03:09:18;;;;;;;;;18.00;18.00;;;;;25.83;49.59;101306.88;5081904;27;45345;-47
2021/07/20 03:11:48;;;;;;;;;16.75;16.75;;;;;25.81;50.30;101307.00;5063623;27;46154;-50
2021/07/20 03:14:18;;;;;;;;;17.00;15.00;;;;;25.79;50.05;101307.13;5063752;28;45415;-51
2021/07/20 03:16:45;;;;;;;;;16.50;16.50;;;;;25.76;50.24;101301.91;5081778;27;45369;-47
2021/07/20 03:19:12;;;;;;;;;15.50;15.50;;;;;25.74;49.81;101305.72;5081770;27;45485;-52
2021/07/20 03:21:40;;;;;;;;;15.50;13.75;;;;;25.73;50.19;101304.00;5081116;27;45625;-48
2021/07/20 03:24:08;;;;;;;;;16.50;15.75;;;;;25.70;50.18;101305.09;5081270;27;45324;-49
2021/07/20 03:26:34;;;;;;;;;15.25;15.25;;;;;25.67;49.82;101297.16;5081502;27;45350;-51
2021/07/20 03:29:03;;;;;;;;;18.75;18.75;;;;;25.64;50.48;101288.34;5081590;27;45318;-49
2021/07/20 03:31:29;;;;;;;;;15.00;15.00;;;;;25.62;49.86;101295.75;5081068;27;47228;-50
2021/07/20 03:33:56;;;;;;;;;17.00;15.25;;;;;25.60;49.92;101301.31;5081399;27;45712;-50
2021/07/20 03:36:22;;;;;;;;;17.50;15.00;;;;;25.59;50.26;101306.84;5079366;27;45379;-50
2021/07/20 03:38:48;;;;;;;;;16.00;16.00;;;;;25.58;49.99;101302.41;5062872;27;45532;-49
2021/07/20 03:41:14;;;;;;;;;14.50;13.75;;;;;25.57;50.09;101303.41;5086026;27;46263;-51
2021/07/20 03:43:40;;;;;;;;;14.50;14.50;;;;;25.53;50.56;101310.88;5086787;27;45499;-51
2021/07/20 03:46:06;;;;;;;;;14.50;13.75;;;;;25.50;50.08;101302.97;5086624;27;45496;-50
2021/07/20 03:48:32;;;;;;;;;12.75;11.75;;;;;25.48;50.56;101307.66;5061172;28;45331;-51
2021/07/20 03:50:58;;;;;;;;;15.25;15.25;;;;;25.46;50.30;101305.06;5080918;27;48429;-52
2021/07/20 03:53:29;;;;;;;;;14.00;14.00;;;;;25.44;49.97;101312.47;5081208;27;45286;-51
2021/07/20 03:55:57;;;;;;;;;18.50;16.75;;;;;25.40;50.05;101310.94;5081335;27;45355;-50
2021/07/20 03:58:23;;;;;;;;;14.00;13.00;;;;;25.39;50.15;101311.91;5081325;27;45285;-49
2021/07/20 04:00:54;;;;;;;;;15.25;15.25;;;;;25.38;50.54;101312.91;5058957;28;47293;-52
2021/07/20 04:03:21;;;;;;;;;18.75;16.00;;;;;25.35;50.38;101310.41;5076660;27;46669;-48
2021/07/20 04:05:49;;;;;;;;;15.00;13.50;;;;;25.35;50.37;101315.84;5080733;27;45515;-50
2021/07/20 04:08:17;;;;;;;;;13.75;12.25;;;;;25.34;50.34;101318.69;5062213;28;45656;-49
2021/07/20 04:10:47;;;;;;;;;16.25;16.00;;;;;25.32;50.58;101321.53;5080262;27;48082;-50
2021/07/20 04:13:13;;;;;;;;;17.25;16.00;;;;;25.30;50.77;101318.06;5080825;27;46119;-51
2021/07/20 04:15:51;;;;;;;;;16.25;14.50;;;;;25.30;50.59;101325.34;5080952;27;45348;-50
2021/07/20 04:18:17;;;;;;;;;18.25;16.75;;;;;25.28;50.84;101321.84;5080844;27;45614;-50
2021/07/20 04:20:45;;;;;;;;;15.75;15.00;;;;;25.26;50.72;101321.09;5080567;27;47732;-51
2021/07/20 04:23:13;;;;;;;;;14.25;14.25;;;;;25.24;50.64;101326.66;5045574;28;45462;-49
2021/07/20 04:25:41;;;;;;;;;21.75;17.75;;;;;25.24;50.88;101323.94;5080838;27;45596;-50
2021/07/20 04:28:06;;;;;;;;;19.50;17.00;;;;;25.23;50.75;101325.78;5080609;27;45536;-51
2021/07/20 04:30:36;;;;;;;;;19.50;18.50;;;;;25.22;50.65;101325.91;5080066;27;46259;-51
2021/07/20 04:33:02;;;;;;;;;16.25;16.00;;;;;25.20;50.93;101326.00;5079623;27;45599;-48
2021/07/20 04:35:29;;;;;;;;;14.50;14.00;;;;;25.19;51.03;101335.13;5080694;28;45317;-49
2021/07/20 04:37:55;;;;;;;;;17.75;16.75;;;;;25.18;50.96;101324.41;5077920;27;45380;-46
2021/07/20 04:40:23;;;;;;;;;15.50;15.50;;;;;25.17;51.37;101334.38;5080500;27;47327;-48
2021/07/20 04:42:49;;;;;;;;;15.50;13.75;;;;;25.16;50.96;101331.78;5043054;28;45472;-46
2021/07/20 04:45:16;;;;;;;;;17.25;16.25;;;;;25.15;51.07;101330.03;5086986;27;45422;-48
2021/07/20 04:47:44;;;;;;;;;13.75;13.75;;;;;25.15;51.20;101330.03;5060065;28;45377;-48
2021/07/20 04:50:12;;;;;;;;;15.75;14.00;;;;;25.15;50.68;101328.19;5080332;27;47288;-48
2021/07/20 04:52:44;;;;;;;;;18.25;17.25;;;;;25.14;50.91;101326.44;5061556;28;45401;-51
2021/07/20 04:55:10;;;;;;;;;19.25;17.25;;;;;25.14;50.77;101333.72;5080231;27;45426;-49
2021/07/20 04:57:36;;;;;;;;;15.75;14.75;;;;;25.12;50.76;101328.41;5080374;27;45528;-48
2021/07/20 05:00:05;;;;;;;;;17.75;16.50;;;;;25.12;50.74;101332.97;5080054;27;48478;-48
2021/07/20 05:02:35;;;;;;;;;18.50;18.25;;;;;25.11;50.63;101342.09;5067825;27;45434;-50
2021/07/20 05:05:01;;;;;;;;;14.50;14.50;;;;;25.10;50.62;101338.53;5058077;28;45964;-49
2021/07/20 05:07:28;;;;;;;;;16.25;16.25;;;;;25.10;50.54;101345.81;5039979;28;45882;-51
2021/07/20 05:09:55;;;;;;;;;15.00;15.00;;;;;25.10;50.36;101348.53;5059555;28;47474;-50
2021/07/20 05:12:21;;;;;;;;;13.50;11.00;;;;;25.09;50.26;101347.66;5041988;28;45398;-49
2021/07/20 05:14:47;;;;;;;;;19.25;17.00;;;;;25.08;50.36;101345.91;5055529;28;45445;-50
2021/07/20 05:17:13;;;;;;;;;16.25;16.25;;;;;25.08;50.71;101345.91;5060240;28;45349;-52
2021/07/20 05:19:39;;;;;;;;;21.00;19.00;;;;;25.08;50.20;101347.75;5058682;28;45270;-52
2021/07/20 05:22:05;;;;;;;;;19.50;17.75;;;;;25.09;50.08;101344.06;5059881;28;45385;-49
2021/07/20 05:24:35;;;;;;;;;18.50;16.75;;;;;25.09;50.46;101346.78;5059850;28;45710;-52
2021/07/20 05:27:02;;;;;;;;;18.00;17.25;;;;;25.08;50.18;101351.34;5041747;28;45434;-48
2021/07/20 05:29:29;;;;;;;;;17.75;17.75;;;;;25.09;49.81;101355.81;5059337;28;47046;-52
2021/07/20 05:31:55;;;;;;;;;23.75;21.75;;;;;25.08;49.62;101353.19;5067728;28;45473;-50
2021/07/20 05:34:23;;;;;;;;;23.50;20.75;;;;;25.07;49.76;101352.34;5079882;27;45695;-46
2021/07/20 05:36:49;;;;;;;;;23.75;22.75;;;;;25.09;49.54;101354.94;5079447;28;45589;-53
2021/07/20 05:39:14;;;;;;;;;21.50;21.50;;;;;25.10;49.04;101357.53;5061766;28;47543;-47
2021/07/20 05:41:42;;;;;;;;;21.75;20.75;;;;;25.12;49.38;101357.41;5059167;28;45386;-50
2021/07/20 05:44:14;;;;;;;;;20.50;19.50;;;;;25.11;49.04;101361.13;5037882;28;45463;-50
2021/07/20 05:46:44;;;;;;;;;23.75;22.50;;;;;25.10;49.01;101362.97;5052544;28;45497;-52
2021/07/20 05:49:14;;;;;;;;;21.50;18.50;;;;;25.11;48.99;101361.97;5056449;28;47346;-50
2021/07/20 05:51:40;;;;;;;;;22.00;21.75;;;;;25.10;49.20;101362.97;5058706;28;45418;-47
2021/07/20 05:54:07;;;;;;;;;26.50;25.50;;;;;25.10;48.46;101364.81;5059139;28;45480;-51
2021/07/20 05:56:34;;;;;;;;;19.00;19.00;;;;;25.11;48.57;101370.13;5038016;28;45564;-51
2021/07/20 05:59:01;;;;;;;;;25.00;24.25;;;;;25.10;48.59;101375.69;5057652;28;48296;-48
2021/07/20 06:01:29;;;;;;;;;24.25;23.00;;;;;25.10;48.10;101376.53;5055922;28;45301;-48
2021/07/20 06:03:56;;;;;;;;;29.75;25.25;;;;;25.11;47.96;101370.13;5059436;28;45667;-50
2021/07/20 06:06:26;;;;;;;;;29.25;26.00;;;;;25.12;47.80;101374.59;5058105;28;45525;-47
2021/07/20 06:08:54;;;;;;;;;24.75;23.50;;;;;25.13;47.67;101365.44;5058193;28;48094;-49
2021/07/20 06:11:21;;;;;;;;;28.75;25.75;;;;;25.15;47.54;101370.78;5050105;28;46173;-47
2021/07/20 06:13:47;;;;;;;;;27.25;22.75;;;;;25.16;47.91;101369.81;5058823;28;45665;-47
2021/07/20 06:16:12;;;;;;;;;25.25;24.75;;;;;25.17;47.28;101375.13;5050961;28;45450;-47
2021/07/20 06:18:39;;;;;;;;;26.00;26.00;;;;;25.19;47.41;101378.59;5058372;28;45405;-50
2021/07/20 06:21:08;;;;;;;;;27.25;27.25;;;;;25.22;46.99;101380.22;5050053;28;45916;-47
2021/07/20 06:23:38;;;;;;;;;23.50;22.25;;;;;25.23;47.32;101377.38;5058259;28;45392;-45
2021/07/20 06:26:04;;;;;;;;;28.75;27.75;;;;;25.24;47.02;101375.53;5059006;27;45292;-46
2021/07/20 06:28:30;;;;;;;;;27.75;27.75;;;;;25.25;46.68;101374.56;5058240;28;47254;-47
2021/07/20 06:30:56;;;;;;;;;26.25;25.50;;;;;25.26;46.43;101378.13;5056783;28;45895;-52
2021/07/20 06:33:24;;;;;;;;;29.50;27.00;;;;;25.26;46.33;101380.84;5058633;28;45290;-46
2021/07/20 06:35:50;;;;;;;;;29.00;28.25;;;;;25.26;46.05;101379.00;5058426;28;45345;-52
2021/07/20 06:38:18;;;;;;;;;30.50;27.50;;;;;25.28;46.45;101378.91;5055519;28;47266;-49
2021/07/20 06:40:47;;;;;;;;;30.75;25.50;;;;;25.29;45.88;101381.53;5056751;28;45647;-51
2021/07/20 06:43:14;;;;;;;;;30.50;30.00;;;;;25.32;45.89;101381.28;5059680;27;45424;-49
2021/07/20 06:45:43;;;;;;;;;32.25;28.50;;;;;25.33;46.08;101383.03;5074201;27;45529;-50
2021/07/20 06:48:16;;;;;;;;;28.50;27.75;;;;;25.34;45.74;101387.47;5076271;27;47666;-50
2021/07/20 06:50:42;;;;;;;;;31.00;28.75;;;;;25.35;46.09;101389.22;5078415;28;45353;-52
2021/07/20 06:53:11;;;;;;;;;29.00;27.50;;;;;25.36;45.53;101390.94;5078656;27;45358;-49
2021/07/20 06:55:43;;;;;;;;;34.50;29.75;;;;;25.37;45.78;101389.97;5078311;27;45516;-52
2021/07/20 06:58:12;;;;;;;;;35.25;30.50;;;;;25.36;45.73;101388.22;5078112;28;48403;-49
2021/07/20 07:00:38;;;;;;;;;32.50;30.75;;;;;25.37;45.60;101387.25;5076117;27;45722;-48
2021/07/20 07:03:05;;;;;;;;;28.00;27.50;;;;;25.38;45.11;101388.13;5071410;27;45373;-50
2021/07/20 07:05:32;;;;;;;;;32.25;28.00;;;;;25.40;45.00;101383.44;5056612;28;45492;-51
2021/07/20 07:07:59;;;;;;;;;33.00;30.25;;;;;25.41;45.23;101391.50;5077935;28;45409;-53
2021/07/20 07:10:25;;;;;;;;;35.25;29.75;;;;;25.42;45.38;101398.66;5077959;28;46113;-47
2021/07/20 07:12:53;;;;;;;;;29.50;28.25;;;;;25.44;45.41;101393.13;5078043;28;46347;-53
2021/07/20 07:15:19;;;;;;;;;28.50;26.75;;;;;25.45;45.11;101394.84;5078215;27;45405;-50
2021/07/20 07:17:47;;;;;;;;;29.75;28.75;;;;;25.47;45.36;101401.03;5077676;27;48433;-50
2021/07/20 07:20:18;;;;;;;;;32.50;27.50;;;;;25.49;45.48;101397.22;5077934;27;45403;-51
2021/07/20 07:22:44;;;;;;;;;31.00;28.25;;;;;25.51;45.02;101405.25;5077865;28;45457;-51
2021/07/20 07:25:11;;;;;;;;;26.75;25.50;;;;;25.52;45.29;101410.56;5078089;27;45372;-50
2021/07/20 07:27:38;;;;;;;;;28.50;26.75;;;;;25.53;44.84;101409.59;5077978;27;47492;-47
2021/07/20 07:30:06;;;;;;;;;29.25;28.25;;;;;25.55;44.77;101401.34;5078895;28;45600;-50
2021/07/20 07:32:32;;;;;;;;;31.25;29.50;;;;;25.56;44.84;101403.09;5080826;27;45349;-50
2021/07/20 07:34:58;;;;;;;;;31.25;28.50;;;;;25.57;44.49;101403.97;5081017;28;45738;-48
2021/07/20 07:37:28;;;;;;;;;33.00;30.75;;;;;25.58;44.41;101409.28;5062185;27;45365;-49
2021/07/20 07:40:00;;;;;;;;;32.50;31.50;;;;;25.60;44.55;101407.31;5081440;27;45478;-48
2021/07/20 07:42:26;;;;;;;;;34.25;30.00;;;;;25.62;44.16;101407.19;5064827;27;45430;-51
2021/07/20 07:44:54;;;;;;;;;33.00;30.25;;;;;25.64;43.94;101410.66;5081946;27;45612;-52
2021/07/20 07:47:24;;;;;;;;;31.00;29.75;;;;;25.65;44.19;101407.81;5077337;27;48374;-48
2021/07/20 07:49:50;;;;;;;;;34.25;30.00;;;;;25.65;43.62;101410.53;5064259;28;45842;-51
2021/07/20 07:52:17;;;;;;;;;28.25;28.25;;;;;25.67;44.01;101415.91;5064313;27;45424;-53
2021/07/20 07:54:46;;;;;;;;;29.50;29.00;;;;;25.70;44.16;101412.97;5081640;27;45560;-52
2021/07/20 07:57:13;;;;;;;;;34.00;31.25;;;;;25.72;43.88;101409.16;5081774;27;47345;-50
2021/07/20 07:59:39;;;;;;;;;33.00;28.75;;;;;25.74;44.14;101409.03;5081624;27;45427;-49
2021/07/20 08:02:09;;;;;;;;;32.75;30.25;;;;;25.75;43.39;101408.91;5072898;27;45684;-50
2021/07/20 08:04:36;;;;;;;;;35.75;31.25;;;;;25.79;43.92;101409.53;5083667;27;45406;-46
2021/07/20 08:07:04;;;;;;;;;34.50;31.00;;;;;25.80;43.79;101419.47;5060022;27;45428;-48
2021/07/20 08:09:31;;;;;;;;;34.25;31.00;;;;;25.82;43.72;101409.34;5082867;27;45754;-49
2021/07/20 08:12:00;;;;;;;;;33.00;29.25;;;;;25.83;43.47;101410.22;5063604;27;45354;-49
2021/07/20 08:14:26;;;;;;;;;29.50;27.50;;;;;25.85;43.56;101410.97;5082616;27;45586;-50
2021/07/20 08:16:57;;;;;;;;;33.50;29.75;;;;;25.87;44.00;101411.72;5082395;27;47295;-49
2021/07/20 08:19:26;;;;;;;;;28.50;27.25;;;;;25.88;43.30;101406.16;5082029;27;45420;-49
2021/07/20 08:21:58;;;;;;;;;31.25;29.50;;;;;25.91;43.68;101405.03;5063858;28;45625;-49
2021/07/20 08:24:25;;;;;;;;;26.75;26.25;;;;;25.91;43.26;101405.03;5081254;27;45512;-51
2021/07/20 08:27:19;;;;;;;;;30.00;29.50;;;;;25.93;43.12;101403.97;5080170;27;47291;-48
2021/07/20 08:29:50;;;;;;;;;31.75;31.00;;;;;25.95;43.19;101403.84;5071822;27;45269;-52
2021/07/20 08:32:18;;;;;;;;;28.00;28.00;;;;;25.98;43.37;101406.34;5063977;28;45395;-49
2021/07/20 08:34:53;;;;;;;;;29.25;24.75;;;;;26.00;43.12;101398.91;5079511;27;45596;-48
2021/07/20 08:37:20;;;;;;;;;27.75;26.50;;;;;26.02;43.09;101402.38;5079954;27;47615;-48
2021/07/20 08:39:50;;;;;;;;;27.50;26.00;;;;;26.04;42.86;101403.13;5082759;27;45889;-49
2021/07/20 08:42:25;;;;;;;;;26.75;25.25;;;;;26.06;43.26;101407.50;5063933;27;45495;-51
2021/07/20 08:45:23;;;;;;;;;25.75;24.75;;;;;26.08;42.97;101410.97;5080017;27;45314;-50
2021/07/20 08:47:51;;;;;;;;;30.75;27.00;;;;;26.10;43.15;101403.56;5032833;27;47511;-51
2021/07/20 08:50:28;;;;;;;;;23.50;23.50;;;;;26.13;43.05;101402.44;5062330;28;45474;-48
2021/07/20 08:53:05;;;;;;;;;27.50;24.75;;;;;26.15;43.20;101399.59;5082705;27;45387;-51
2021/07/20 08:55:38;;;;;;;;;31.50;28.25;;;;;26.17;42.82;101405.78;5081918;27;45350;-48
2021/07/20 08:58:06;;;;;;;;;27.50;26.00;;;;;26.22;42.94;101407.19;5081092;27;45374;-51
2021/07/20 09:00:41;;;;;;;;;27.25;22.50;;;;;26.25;42.84;101401.50;5061774;27;45571;-48
2021/07/20 09:03:25;;;;;;;;;21.00;21.00;;;;;26.27;43.08;101404.97;5057789;27;45344;-49
2021/07/20 09:05:50;;;;;;;;;21.00;18.75;;;;;26.29;42.69;101405.72;5080831;27;46049;-49
2021/07/20 09:08:35;;;;;;;;;20.50;20.50;;;;;26.32;43.32;101410.94;5061252;28;45605;-50
2021/07/20 09:11:21;;;;;;;;;22.25;20.75;;;;;26.35;42.99;101412.56;5081385;27;45651;-51
2021/07/20 09:13:54;;;;;;;;;27.00;24.00;;;;;26.38;43.46;101404.19;5060916;28;45343;-48
2021/07/20 09:16:29;;;;;;;;;27.00;26.25;;;;;26.39;43.49;101414.94;5081960;27;46494;-47
2021/07/20 09:19:29;;;;;;;;;21.75;21.25;;;;;26.43;43.64;101407.44;5058622;28;47322;-52
2021/07/20 09:22:00;;;;;;;;;24.75;23.00;;;;;26.46;43.22;101407.19;5079080;27;45830;-50
2021/07/20 09:24:38;;;;;;;;;25.25;24.25;;;;;26.50;43.69;101396.94;5044870;27;45417;-50
2021/07/20 09:27:16;;;;;;;;;27.50;23.25;;;;;26.53;43.72;101408.44;5080530;27;45501;-47
2021/07/20 09:29:45;;;;;;;;;28.50;26.50;;;;;26.57;43.02;101406.38;5079759;27;47501;-48
2021/07/20 09:32:39;;;;;;;;;28.25;27.75;;;;;26.57;42.95;101407.22;5079843;27;45427;-48
2021/07/20 09:35:20;;;;;;;;;23.50;23.50;;;;;26.60;43.70;101408.84;5069999;27;45674;-51
2021/07/20 09:38:08;;;;;;;;;27.00;27.00;;;;;26.64;42.94;101410.31;5078361;28;45548;-49
2021/07/20 09:40:43;;;;;;;;;26.75;24.00;;;;;26.68;43.72;101409.13;5079052;27;47329;-50
2021/07/20 09:43:25;;;;;;;;;26.50;24.50;;;;;26.71;43.40;101411.59;5061594;28;45448;-49
2021/07/20 09:45:59;;;;;;;;;22.75;22.75;;;;;26.74;43.07;101410.47;5075724;27;45771;-52
2021/07/20 09:48:37;;;;;;;;;26.00;23.25;;;;;26.76;43.38;101408.50;5076712;27;45588;-50
2021/07/20 09:51:09;;;;;;;;;27.00;25.25;;;;;26.77;42.80;101412.97;5057406;28;47316;-51
2021/07/20 09:54:05;;;;;;;;;26.25;26.25;;;;;26.79;43.40;101408.25;5075051;27;45546;-50
2021/07/20 09:56:38;;;;;;;;;25.00;24.50;;;;;26.81;43.03;101404.44;5079364;27;45492;-49
2021/07/20 09:59:30;;;;;;;;;28.00;28.00;;;;;26.83;42.49;101410.63;5058298;28;45375;-51
2021/07/20 10:01:58;;;;;;;;;29.00;26.50;;;;;26.84;42.64;101400.59;5040153;27;47475;-49
2021/07/20 10:04:47;;;;;;;;;27.25;26.25;;;;;26.86;42.85;101406.78;5078825;27;45369;-51
2021/07/20 10:07:27;;;;;;;;;28.75;25.00;;;;;26.88;42.89;101404.81;5076618;27;45362;-48
2021/07/20 10:10:07;;;;;;;;;30.50;28.75;;;;;26.92;42.92;101407.16;5079246;27;45556;-49
2021/07/20 10:12:33;;;;;;;;;27.25;23.50;;;;;26.95;43.47;101401.50;5079033;27;48341;-48
2021/07/20 10:15:07;;;;;;;;;25.00;24.00;;;;;26.98;43.28;101397.66;5078699;27;45911;-50
2021/07/20 10:18:04;;;;;;;;;29.75;28.00;;;;;27.02;42.65;101387.41;5078988;27;45421;-50
2021/07/20 10:20:37;;;;;;;;;27.00;25.00;;;;;27.05;42.61;101396.19;5078433;27;45397;-50
2021/07/20 10:23:15;;;;;;;;;27.50;26.25;;;;;27.07;42.88;101386.06;5060588;28;45747;-47
2021/07/20 10:26:04;;;;;;;;;23.25;22.75;;;;;27.08;43.13;101379.63;5078819;27;45310;-52
2021/07/20 10:28:47;;;;;;;;;26.00;25.25;;;;;27.11;43.32;101382.09;5078988;27;45457;-52
2021/07/20 10:31:20;;;;;;;;;21.75;21.75;;;;;27.13;43.18;101382.81;5079350;27;45353;-50
2021/07/20 10:33:58;;;;;;;;;25.50;23.75;;;;;27.16;43.12;101371.66;5079154;27;45467;-50
2021/07/20 10:36:35;;;;;;;;;20.00;20.00;;;;;27.18;43.22;101371.53;5076948;27;45705;-51
2021/07/20 10:39:08;;;;;;;;;24.75;23.25;;;;;27.22;43.34;101373.03;5077313;28;45458;-52
2021/07/20 10:41:52;;;;;;;;;27.50;25.50;;;;;27.26;43.33;101374.53;5061188;28;45560;-49
2021/07/20 10:44:40;;;;;;;;;21.75;20.25;;;;;27.30;43.21;101364.22;5078708;27;48282;-52
2021/07/20 10:47:06;;;;;;;;;19.75;19.25;;;;;27.33;42.16;101362.13;5054248;28;45441;-52
2021/07/20 10:49:48;;;;;;;;;20.75;20.75;;;;;27.36;42.67;101371.91;5079127;28;45369;-50
2021/07/20 10:52:51;;;;;;;;;22.00;19.00;;;;;27.38;42.18;101356.28;5079145;27;45629;-50
2021/07/20 10:55:29;;;;;;;;;19.75;18.50;;;;;27.39;42.30;101360.75;5078579;27;47165;-54
2021/07/20 10:58:29;;;;;;;;;19.50;18.50;;;;;27.40;42.31;101354.31;5078669;28;45294;-49
2021/07/20 11:01:32;;;;;;;;;19.00;17.00;;;;;27.40;41.50;101360.63;5064073;27;45357;-50
2021/07/20 11:04:07;;;;;;;;;22.75;19.00;;;;;27.43;42.29;101356.78;5057344;28;45508;-52
2021/07/20 11:06:38;;;;;;;;;15.75;15.75;;;;;27.44;41.51;101359.41;5078246;28;46969;-49
2021/07/20 11:09:09;;;;;;;;;19.75;19.25;;;;;27.47;41.48;101358.28;5077876;27;45712;-50
2021/07/20 11:11:44;;;;;;;;;20.00;20.00;;;;;27.50;41.32;101350.69;5079543;27;45732;-50
2021/07/20 11:14:11;;;;;;;;;20.00;19.25;;;;;27.53;41.61;101353.16;5079148;27;45287;-49
2021/07/20 11:16:39;;;;;;;;;19.00;18.00;;;;;27.56;41.75;101349.31;5080166;27;47087;-47
2021/07/20 11:19:07;;;;;;;;;18.50;16.75;;;;;27.58;41.15;101350.06;5064954;28;46169;-52
2021/07/20 11:21:33;;;;;;;;;18.50;17.75;;;;;27.61;41.47;101358.00;5078604;27;45599;-50
2021/07/20 11:24:00;;;;;;;;;20.50;20.50;;;;;27.66;41.54;101349.44;5082422;27;45542;-52
2021/07/20 11:26:29;;;;;;;;;21.50;20.75;;;;;27.69;41.15;101352.78;5082299;27;45501;-51
2021/07/20 11:28:56;;;;;;;;;19.75;16.75;;;;;27.72;41.04;101352.53;5063485;27;45408;-49